sensor_id;sensor_type;location;lat;lon;timestamp;temperature;humidity
25410;DHT22;13339;50.840;4.346;2023-12-14T00:01:44;11.50;99.90
25410;DHT22;13339;50.840;4.346;2023-12-14T00:04:11;11.50;99.90
25410;DHT22;13339;50.840;4.346;2023-12-14T00:06:37;11.50;99.90
25410;DHT22;13339;50.840;4.346;2023-12-14T00:09:03;11.40;99.90
25410;DHT22;13339;50.840;4.346;2023-12-14T00:11:28;11.20;99.90
25410;DHT22;13339;50.840;4.346;2023-12-14T00:13:54;11.00;99.90
25410;DHT22;13339;50.840;4.346;2023-12-14T00:16:20;11.10;99.90
25410;DHT22;13339;50.840;4.346;2023-12-14T00:18:46;11.10;99.90
25410;DHT22;13339;50.840;4.346;2023-12-14T00:21:11;11.20;99.90
25410;DHT22;13339;50.840;4.346;2023-12-14T00:23:37;11.30;99.90
25410;DHT22;13339;50.840;4.346;2023-12-14T00:26:03;11.40;99.90
25410;DHT22;13339;50.840;4.346;2023-12-14T00:28:28;11.20;99.90
25410;DHT22;13339;50.840;4.346;2023-12-14T00:30:54;11.20;99.90
25410;DHT22;13339;50.840;4.346;2023-12-14T00:33:20;11.00;99.90
25410;DHT22;13339;50.840;4.346;2023-12-14T00:35:45;11.00;99.90
25410;DHT22;13339;50.840;4.346;2023-12-14T00:38:11;11.00;99.90
25410;DHT22;13339;50.840;4.346;2023-12-14T00:40:37;11.10;99.90
25410;DHT22;13339;50.840;4.346;2023-12-14T00:43:02;11.20;99.90
25410;DHT22;13339;50.840;4.346;2023-12-14T00:45:28;11.20;99.90
25410;DHT22;13339;50.840;4.346;2023-12-14T00:47:53;11.20;99.90
25410;DHT22;13339;50.840;4.346;2023-12-14T00:50:19;11.10;99.90
25410;DHT22;13339;50.840;4.346;2023-12-14T00:52:45;11.10;99.90
25410;DHT22;13339;50.840;4.346;2023-12-14T00:55:10;11.20;99.90
25410;DHT22;13339;50.840;4.346;2023-12-14T00:57:36;11.30;99.90
25410;DHT22;13339;50.840;4.346;2023-12-14T01:00:02;11.20;99.90
25410;DHT22;13339;50.840;4.346;2023-12-14T01:02:27;11.20;99.90
25410;DHT22;13339;50.840;4.346;2023-12-14T01:04:53;11.20;99.90
25410;DHT22;13339;50.840;4.346;2023-12-14T01:07:18;11.20;99.90
25410;DHT22;13339;50.840;4.346;2023-12-14T01:09:44;11.30;99.90
25410;DHT22;13339;50.840;4.346;2023-12-14T01:12:10;11.20;99.90
25410;DHT22;13339;50.840;4.346;2023-12-14T01:14:35;11.30;99.90
25410;DHT22;13339;50.840;4.346;2023-12-14T01:17:01;11.40;99.90
25410;DHT22;13339;50.840;4.346;2023-12-14T01:19:27;11.40;99.90
25410;DHT22;13339;50.840;4.346;2023-12-14T01:21:52;11.50;99.90
25410;DHT22;13339;50.840;4.346;2023-12-14T01:24:18;11.60;99.90
25410;DHT22;13339;50.840;4.346;2023-12-14T01:26:44;11.60;99.90
25410;DHT22;13339;50.840;4.346;2023-12-14T01:29:09;11.60;99.90
25410;DHT22;13339;50.840;4.346;2023-12-14T01:31:36;11.60;99.90
25410;DHT22;13339;50.840;4.346;2023-12-14T01:34:02;11.70;99.90
25410;DHT22;13339;50.840;4.346;2023-12-14T01:36:27;11.70;99.90
25410;DHT22;13339;50.840;4.346;2023-12-14T01:38:53;11.60;99.90
25410;DHT22;13339;50.840;4.346;2023-12-14T01:41:19;11.60;99.90
25410;DHT22;13339;50.840;4.346;2023-12-14T01:43:45;11.50;99.90
25410;DHT22;13339;50.840;4.346;2023-12-14T01:46:11;11.50;99.90
25410;DHT22;13339;50.840;4.346;2023-12-14T01:48:37;11.30;99.90
25410;DHT22;13339;50.840;4.346;2023-12-14T01:51:03;11.20;99.90
25410;DHT22;13339;50.840;4.346;2023-12-14T01:53:28;11.30;99.90
25410;DHT22;13339;50.840;4.346;2023-12-14T01:55:54;11.20;99.90
25410;DHT22;13339;50.840;4.346;2023-12-14T01:58:20;11.30;99.90
25410;DHT22;13339;50.840;4.346;2023-12-14T02:00:55;11.30;99.90
25410;DHT22;13339;50.840;4.346;2023-12-14T02:03:23;11.40;99.90
25410;DHT22;13339;50.840;4.346;2023-12-14T02:05:48;11.30;99.90
25410;DHT22;13339;50.840;4.346;2023-12-14T02:08:14;11.20;99.90
25410;DHT22;13339;50.840;4.346;2023-12-14T02:10:40;11.20;99.90
25410;DHT22;13339;50.840;4.346;2023-12-14T02:13:05;11.30;99.90
25410;DHT22;13339;50.840;4.346;2023-12-14T02:15:31;11.30;99.90
25410;DHT22;13339;50.840;4.346;2023-12-14T02:17:56;11.30;99.90
25410;DHT22;13339;50.840;4.346;2023-12-14T02:20:22;11.30;99.90
25410;DHT22;13339;50.840;4.346;2023-12-14T02:22:52;11.30;99.90
25410;DHT22;13339;50.840;4.346;2023-12-14T02:25:19;11.30;99.90
25410;DHT22;13339;50.840;4.346;2023-12-14T02:27:44;11.20;99.90
25410;DHT22;13339;50.840;4.346;2023-12-14T02:30:11;11.20;99.90
25410;DHT22;13339;50.840;4.346;2023-12-14T02:32:38;11.00;99.90
25410;DHT22;13339;50.840;4.346;2023-12-14T02:35:05;10.50;99.90
25410;DHT22;13339;50.840;4.346;2023-12-14T02:37:31;10.40;99.90
25410;DHT22;13339;50.840;4.346;2023-12-14T02:39:57;10.20;99.90
25410;DHT22;13339;50.840;4.346;2023-12-14T02:42:23;10.10;99.90
25410;DHT22;13339;50.840;4.346;2023-12-14T02:44:49;10.00;99.90
25410;DHT22;13339;50.840;4.346;2023-12-14T02:47:15;10.00;99.90
25410;DHT22;13339;50.840;4.346;2023-12-14T02:49:41;9.90;99.90
25410;DHT22;13339;50.840;4.346;2023-12-14T02:52:07;9.80;99.90
25410;DHT22;13339;50.840;4.346;2023-12-14T02:54:32;9.70;99.90
25410;DHT22;13339;50.840;4.346;2023-12-14T02:56:58;9.80;99.90
25410;DHT22;13339;50.840;4.346;2023-12-14T02:59:24;9.70;99.90
25410;DHT22;13339;50.840;4.346;2023-12-14T03:01:49;9.70;99.90
25410;DHT22;13339;50.840;4.346;2023-12-14T03:04:15;9.70;99.90
25410;DHT22;13339;50.840;4.346;2023-12-14T03:06:40;9.70;99.90
25410;DHT22;13339;50.840;4.346;2023-12-14T03:09:06;9.60;99.90
25410;DHT22;13339;50.840;4.346;2023-12-14T03:11:32;9.70;99.90
25410;DHT22;13339;50.840;4.346;2023-12-14T03:13:57;9.80;99.90
25410;DHT22;13339;50.840;4.346;2023-12-14T03:16:24;9.80;99.90
25410;DHT22;13339;50.840;4.346;2023-12-14T03:18:50;9.60;99.90
25410;DHT22;13339;50.840;4.346;2023-12-14T03:21:19;9.70;99.90
25410;DHT22;13339;50.840;4.346;2023-12-14T03:23:45;9.70;99.90
25410;DHT22;13339;50.840;4.346;2023-12-14T03:26:11;9.70;99.90
25410;DHT22;13339;50.840;4.346;2023-12-14T03:28:37;9.70;99.90
25410;DHT22;13339;50.840;4.346;2023-12-14T03:31:03;9.60;99.90
25410;DHT22;13339;50.840;4.346;2023-12-14T03:33:28;9.60;99.90
25410;DHT22;13339;50.840;4.346;2023-12-14T03:35:55;9.70;99.90
25410;DHT22;13339;50.840;4.346;2023-12-14T03:38:20;9.80;99.90
25410;DHT22;13339;50.840;4.346;2023-12-14T03:40:46;9.90;99.90
25410;DHT22;13339;50.840;4.346;2023-12-14T03:43:11;9.80;99.90
25410;DHT22;13339;50.840;4.346;2023-12-14T03:45:37;9.60;99.90
25410;DHT22;13339;50.840;4.346;2023-12-14T03:48:03;9.50;99.90
25410;DHT22;13339;50.840;4.346;2023-12-14T03:50:28;9.60;99.90
25410;DHT22;13339;50.840;4.346;2023-12-14T03:52:54;9.50;99.90
25410;DHT22;13339;50.840;4.346;2023-12-14T03:55:20;9.20;99.90
25410;DHT22;13339;50.840;4.346;2023-12-14T03:57:46;9.20;99.90
25410;DHT22;13339;50.840;4.346;2023-12-14T04:00:12;9.10;99.90
25410;DHT22;13339;50.840;4.346;2023-12-14T04:02:39;9.20;99.90
25410;DHT22;13339;50.840;4.346;2023-12-14T04:05:06;9.20;99.90
25410;DHT22;13339;50.840;4.346;2023-12-14T04:07:32;9.20;99.90
25410;DHT22;13339;50.840;4.346;2023-12-14T04:09:57;9.20;99.90
25410;DHT22;13339;50.840;4.346;2023-12-14T04:12:23;9.20;99.90
25410;DHT22;13339;50.840;4.346;2023-12-14T04:14:48;9.20;99.90
25410;DHT22;13339;50.840;4.346;2023-12-14T04:17:15;9.10;99.90
25410;DHT22;13339;50.840;4.346;2023-12-14T04:19:41;9.10;99.90
25410;DHT22;13339;50.840;4.346;2023-12-14T04:22:07;9.20;99.90
25410;DHT22;13339;50.840;4.346;2023-12-14T04:24:33;9.10;99.90
25410;DHT22;13339;50.840;4.346;2023-12-14T04:26:59;9.10;99.90
25410;DHT22;13339;50.840;4.346;2023-12-14T04:29:25;9.20;99.90
25410;DHT22;13339;50.840;4.346;2023-12-14T04:31:51;9.10;99.90
25410;DHT22;13339;50.840;4.346;2023-12-14T04:34:18;9.10;99.90
25410;DHT22;13339;50.840;4.346;2023-12-14T04:36:45;9.10;99.90
25410;DHT22;13339;50.840;4.346;2023-12-14T04:39:11;9.00;99.90
25410;DHT22;13339;50.840;4.346;2023-12-14T04:41:37;9.00;99.90
25410;DHT22;13339;50.840;4.346;2023-12-14T04:44:03;9.00;99.90
25410;DHT22;13339;50.840;4.346;2023-12-14T04:46:29;8.90;99.90
25410;DHT22;13339;50.840;4.346;2023-12-14T04:48:55;8.80;99.90
25410;DHT22;13339;50.840;4.346;2023-12-14T04:51:20;9.00;99.90
25410;DHT22;13339;50.840;4.346;2023-12-14T04:53:46;9.10;99.90
25410;DHT22;13339;50.840;4.346;2023-12-14T04:56:12;9.10;99.90
25410;DHT22;13339;50.840;4.346;2023-12-14T04:58:41;9.10;99.90
25410;DHT22;13339;50.840;4.346;2023-12-14T05:01:07;9.20;99.90
25410;DHT22;13339;50.840;4.346;2023-12-14T05:03:34;9.20;99.90
25410;DHT22;13339;50.840;4.346;2023-12-14T05:06:00;9.20;99.90
25410;DHT22;13339;50.840;4.346;2023-12-14T05:08:26;9.10;99.90
25410;DHT22;13339;50.840;4.346;2023-12-14T05:10:51;9.20;99.90
25410;DHT22;13339;50.840;4.346;2023-12-14T05:13:17;9.30;99.90
25410;DHT22;13339;50.840;4.346;2023-12-14T05:15:42;9.30;99.90
25410;DHT22;13339;50.840;4.346;2023-12-14T05:18:08;9.20;99.90
25410;DHT22;13339;50.840;4.346;2023-12-14T05:20:34;9.10;99.90
25410;DHT22;13339;50.840;4.346;2023-12-14T05:23:00;9.00;99.90
25410;DHT22;13339;50.840;4.346;2023-12-14T05:25:26;9.00;99.90
25410;DHT22;13339;50.840;4.346;2023-12-14T05:27:51;9.10;99.90
25410;DHT22;13339;50.840;4.346;2023-12-14T05:30:17;9.20;99.90
25410;DHT22;13339;50.840;4.346;2023-12-14T05:32:43;9.20;99.90
25410;DHT22;13339;50.840;4.346;2023-12-14T05:35:09;9.30;99.90
25410;DHT22;13339;50.840;4.346;2023-12-14T05:37:35;9.30;99.90
25410;DHT22;13339;50.840;4.346;2023-12-14T05:40:02;9.30;99.90
25410;DHT22;13339;50.840;4.346;2023-12-14T05:42:28;9.10;99.90
25410;DHT22;13339;50.840;4.346;2023-12-14T05:44:53;9.00;99.90
25410;DHT22;13339;50.840;4.346;2023-12-14T05:47:19;9.10;99.90
25410;DHT22;13339;50.840;4.346;2023-12-14T05:49:45;9.20;99.90
25410;DHT22;13339;50.840;4.346;2023-12-14T05:52:11;9.20;99.90
25410;DHT22;13339;50.840;4.346;2023-12-14T05:54:37;9.30;99.90
25410;DHT22;13339;50.840;4.346;2023-12-14T05:57:04;9.30;99.90
25410;DHT22;13339;50.840;4.346;2023-12-14T05:59:29;9.20;99.90
25410;DHT22;13339;50.840;4.346;2023-12-14T06:01:59;9.30;99.90
25410;DHT22;13339;50.840;4.346;2023-12-14T06:04:26;9.20;99.90
25410;DHT22;13339;50.840;4.346;2023-12-14T06:06:52;9.10;99.90
25410;DHT22;13339;50.840;4.346;2023-12-14T06:09:18;9.30;99.90
25410;DHT22;13339;50.840;4.346;2023-12-14T06:11:47;9.40;99.90
25410;DHT22;13339;50.840;4.346;2023-12-14T06:14:13;9.50;99.90
25410;DHT22;13339;50.840;4.346;2023-12-14T06:16:39;9.60;99.90
25410;DHT22;13339;50.840;4.346;2023-12-14T06:19:04;9.60;99.90
25410;DHT22;13339;50.840;4.346;2023-12-14T06:21:30;9.40;99.90
25410;DHT22;13339;50.840;4.346;2023-12-14T06:23:56;9.40;99.90
25410;DHT22;13339;50.840;4.346;2023-12-14T06:26:23;9.30;99.90
25410;DHT22;13339;50.840;4.346;2023-12-14T06:28:48;9.30;99.90
25410;DHT22;13339;50.840;4.346;2023-12-14T06:31:15;9.30;99.90
25410;DHT22;13339;50.840;4.346;2023-12-14T06:33:41;9.30;99.90
25410;DHT22;13339;50.840;4.346;2023-12-14T06:36:10;9.40;99.90
25410;DHT22;13339;50.840;4.346;2023-12-14T06:38:38;9.30;99.90
25410;DHT22;13339;50.840;4.346;2023-12-14T06:41:04;9.30;99.90
25410;DHT22;13339;50.840;4.346;2023-12-14T06:43:30;9.40;99.90
25410;DHT22;13339;50.840;4.346;2023-12-14T06:45:56;9.50;99.90
25410;DHT22;13339;50.840;4.346;2023-12-14T06:48:21;9.40;99.90
25410;DHT22;13339;50.840;4.346;2023-12-14T06:50:47;9.50;99.90
25410;DHT22;13339;50.840;4.346;2023-12-14T06:53:12;9.50;99.90
25410;DHT22;13339;50.840;4.346;2023-12-14T06:55:40;9.60;99.90
25410;DHT22;13339;50.840;4.346;2023-12-14T06:58:05;9.60;99.90
25410;DHT22;13339;50.840;4.346;2023-12-14T07:00:36;9.70;99.90
25410;DHT22;13339;50.840;4.346;2023-12-14T07:03:02;9.70;99.90
25410;DHT22;13339;50.840;4.346;2023-12-14T07:05:28;9.80;99.90
25410;DHT22;13339;50.840;4.346;2023-12-14T07:07:54;9.70;99.90
25410;DHT22;13339;50.840;4.346;2023-12-14T07:10:22;9.80;99.90
25410;DHT22;13339;50.840;4.346;2023-12-14T07:12:47;9.70;99.90
25410;DHT22;13339;50.840;4.346;2023-12-14T07:15:13;9.50;99.90
25410;DHT22;13339;50.840;4.346;2023-12-14T07:17:38;9.40;99.90
25410;DHT22;13339;50.840;4.346;2023-12-14T07:20:05;9.10;99.90
25410;DHT22;13339;50.840;4.346;2023-12-14T07:22:32;8.90;99.90
25410;DHT22;13339;50.840;4.346;2023-12-14T07:24:57;8.90;99.90
25410;DHT22;13339;50.840;4.346;2023-12-14T07:27:23;8.80;99.90
25410;DHT22;13339;50.840;4.346;2023-12-14T07:29:49;8.80;99.90
25410;DHT22;13339;50.840;4.346;2023-12-14T07:32:14;8.70;99.90
25410;DHT22;13339;50.840;4.346;2023-12-14T07:34:40;8.80;99.90
25410;DHT22;13339;50.840;4.346;2023-12-14T07:37:05;9.00;99.90
25410;DHT22;13339;50.840;4.346;2023-12-14T07:39:31;9.00;99.90
25410;DHT22;13339;50.840;4.346;2023-12-14T07:41:57;9.10;99.90
25410;DHT22;13339;50.840;4.346;2023-12-14T07:44:23;9.20;99.90
25410;DHT22;13339;50.840;4.346;2023-12-14T07:46:51;9.30;99.90
25410;DHT22;13339;50.840;4.346;2023-12-14T07:49:16;9.40;99.90
25410;DHT22;13339;50.840;4.346;2023-12-14T07:51:46;9.50;99.90
25410;DHT22;13339;50.840;4.346;2023-12-14T07:54:12;9.50;99.90
25410;DHT22;13339;50.840;4.346;2023-12-14T07:56:37;9.60;99.90
25410;DHT22;13339;50.840;4.346;2023-12-14T07:59:03;9.50;99.90
25410;DHT22;13339;50.840;4.346;2023-12-14T08:01:32;9.60;99.90
25410;DHT22;13339;50.840;4.346;2023-12-14T08:03:57;9.70;99.90
25410;DHT22;13339;50.840;4.346;2023-12-14T08:06:23;9.70;99.90
25410;DHT22;13339;50.840;4.346;2023-12-14T08:08:49;9.90;99.90
25410;DHT22;13339;50.840;4.346;2023-12-14T08:11:14;10.00;99.90
25410;DHT22;13339;50.840;4.346;2023-12-14T08:13:40;10.00;99.90
25410;DHT22;13339;50.840;4.346;2023-12-14T08:16:07;9.90;99.90
25410;DHT22;13339;50.840;4.346;2023-12-14T08:18:33;9.80;99.90
25410;DHT22;13339;50.840;4.346;2023-12-14T08:20:59;10.00;99.90
25410;DHT22;13339;50.840;4.346;2023-12-14T08:23:24;10.10;99.90
25410;DHT22;13339;50.840;4.346;2023-12-14T08:25:53;10.10;99.90
25410;DHT22;13339;50.840;4.346;2023-12-14T08:28:23;10.10;99.90
25410;DHT22;13339;50.840;4.346;2023-12-14T08:30:49;10.10;99.90
25410;DHT22;13339;50.840;4.346;2023-12-14T08:33:15;10.20;99.90
25410;DHT22;13339;50.840;4.346;2023-12-14T08:35:41;10.20;99.90
25410;DHT22;13339;50.840;4.346;2023-12-14T08:38:07;10.30;99.90
25410;DHT22;13339;50.840;4.346;2023-12-14T08:40:32;10.40;99.90
25410;DHT22;13339;50.840;4.346;2023-12-14T08:42:58;10.20;99.90
25410;DHT22;13339;50.840;4.346;2023-12-14T08:45:24;10.20;99.90
25410;DHT22;13339;50.840;4.346;2023-12-14T08:47:50;10.10;99.90
25410;DHT22;13339;50.840;4.346;2023-12-14T08:50:15;10.30;99.90
25410;DHT22;13339;50.840;4.346;2023-12-14T08:52:41;10.30;99.90
25410;DHT22;13339;50.840;4.346;2023-12-14T08:55:08;10.20;99.90
25410;DHT22;13339;50.840;4.346;2023-12-14T08:57:34;10.10;99.90
25410;DHT22;13339;50.840;4.346;2023-12-14T09:00:00;10.00;99.90
25410;DHT22;13339;50.840;4.346;2023-12-14T09:02:26;10.00;99.90
25410;DHT22;13339;50.840;4.346;2023-12-14T09:04:52;10.00;99.90
25410;DHT22;13339;50.840;4.346;2023-12-14T09:07:17;10.00;99.90
25410;DHT22;13339;50.840;4.346;2023-12-14T09:09:43;10.10;99.90
25410;DHT22;13339;50.840;4.346;2023-12-14T09:12:09;10.00;99.90
25410;DHT22;13339;50.840;4.346;2023-12-14T09:14:35;10.10;99.90
25410;DHT22;13339;50.840;4.346;2023-12-14T09:17:00;10.20;99.90
25410;DHT22;13339;50.840;4.346;2023-12-14T09:19:26;10.10;99.90
25410;DHT22;13339;50.840;4.346;2023-12-14T09:21:51;10.20;99.90
25410;DHT22;13339;50.840;4.346;2023-12-14T09:24:17;10.20;99.90
25410;DHT22;13339;50.840;4.346;2023-12-14T09:26:43;10.00;99.90
25410;DHT22;13339;50.840;4.346;2023-12-14T09:29:09;10.10;99.90
25410;DHT22;13339;50.840;4.346;2023-12-14T09:31:35;10.20;99.90
25410;DHT22;13339;50.840;4.346;2023-12-14T09:34:01;10.50;99.90
25410;DHT22;13339;50.840;4.346;2023-12-14T09:36:26;10.60;99.90
25410;DHT22;13339;50.840;4.346;2023-12-14T09:38:52;10.70;99.90
25410;DHT22;13339;50.840;4.346;2023-12-14T09:41:18;10.60;99.90
25410;DHT22;13339;50.840;4.346;2023-12-14T09:43:45;10.70;99.90
25410;DHT22;13339;50.840;4.346;2023-12-14T09:46:11;10.80;99.90
25410;DHT22;13339;50.840;4.346;2023-12-14T09:48:37;10.80;99.90
25410;DHT22;13339;50.840;4.346;2023-12-14T09:51:03;10.80;99.90
25410;DHT22;13339;50.840;4.346;2023-12-14T09:53:28;10.90;99.90
25410;DHT22;13339;50.840;4.346;2023-12-14T09:55:54;10.80;99.90
25410;DHT22;13339;50.840;4.346;2023-12-14T09:58:19;10.80;99.90
25410;DHT22;13339;50.840;4.346;2023-12-14T10:00:45;10.70;99.90
25410;DHT22;13339;50.840;4.346;2023-12-14T10:03:21;10.80;99.90
25410;DHT22;13339;50.840;4.346;2023-12-14T10:05:47;10.80;99.90
25410;DHT22;13339;50.840;4.346;2023-12-14T10:08:15;10.70;99.90
25410;DHT22;13339;50.840;4.346;2023-12-14T10:10:42;10.70;99.90
25410;DHT22;13339;50.840;4.346;2023-12-14T10:13:07;10.60;99.90
25410;DHT22;13339;50.840;4.346;2023-12-14T10:15:49;10.60;99.90
25410;DHT22;13339;50.840;4.346;2023-12-14T10:18:24;10.70;99.90
25410;DHT22;13339;50.840;4.346;2023-12-14T10:20:50;10.70;99.90
25410;DHT22;13339;50.840;4.346;2023-12-14T10:23:17;10.80;99.90
25410;DHT22;13339;50.840;4.346;2023-12-14T10:25:43;10.80;99.90
25410;DHT22;13339;50.840;4.346;2023-12-14T10:28:12;10.80;99.90
25410;DHT22;13339;50.840;4.346;2023-12-14T10:30:39;10.80;99.90
25410;DHT22;13339;50.840;4.346;2023-12-14T10:33:05;10.90;99.90
25410;DHT22;13339;50.840;4.346;2023-12-14T10:35:30;10.90;99.90
25410;DHT22;13339;50.840;4.346;2023-12-14T10:38:00;10.80;99.90
25410;DHT22;13339;50.840;4.346;2023-12-14T10:40:27;10.80;99.90
25410;DHT22;13339;50.840;4.346;2023-12-14T10:42:55;10.90;99.90
25410;DHT22;13339;50.840;4.346;2023-12-14T10:45:26;10.90;99.90
25410;DHT22;13339;50.840;4.346;2023-12-14T10:47:54;11.00;99.90
25410;DHT22;13339;50.840;4.346;2023-12-14T10:50:20;11.10;99.90
25410;DHT22;13339;50.840;4.346;2023-12-14T10:52:47;11.20;99.90
25410;DHT22;13339;50.840;4.346;2023-12-14T10:55:21;11.30;99.90
25410;DHT22;13339;50.840;4.346;2023-12-14T10:57:47;11.40;99.90
25410;DHT22;13339;50.840;4.346;2023-12-14T11:00:16;11.60;99.90
25410;DHT22;13339;50.840;4.346;2023-12-14T11:02:45;11.40;99.90
25410;DHT22;13339;50.840;4.346;2023-12-14T11:05:13;11.70;99.90
25410;DHT22;13339;50.840;4.346;2023-12-14T11:10:27;11.60;99.90
25410;DHT22;13339;50.840;4.346;2023-12-14T11:13:00;11.80;99.90
25410;DHT22;13339;50.840;4.346;2023-12-14T11:15:28;11.90;99.90
25410;DHT22;13339;50.840;4.346;2023-12-14T11:20:51;11.80;99.90
25410;DHT22;13339;50.840;4.346;2023-12-14T11:25:51;11.60;99.90
25410;DHT22;13339;50.840;4.346;2023-12-14T11:28:17;11.50;99.90
25410;DHT22;13339;50.840;4.346;2023-12-14T11:30:46;11.60;99.90
25410;DHT22;13339;50.840;4.346;2023-12-14T11:33:13;11.60;99.90
25410;DHT22;13339;50.840;4.346;2023-12-14T11:35:39;11.60;99.90
25410;DHT22;13339;50.840;4.346;2023-12-14T11:38:05;11.60;99.90
25410;DHT22;13339;50.840;4.346;2023-12-14T11:40:41;11.40;99.90
25410;DHT22;13339;50.840;4.346;2023-12-14T11:43:07;11.40;99.90
25410;DHT22;13339;50.840;4.346;2023-12-14T11:45:37;11.40;99.90
25410;DHT22;13339;50.840;4.346;2023-12-14T11:48:04;11.50;99.90
25410;DHT22;13339;50.840;4.346;2023-12-14T11:50:32;11.60;99.90
25410;DHT22;13339;50.840;4.346;2023-12-14T11:53:00;11.40;99.90
25410;DHT22;13339;50.840;4.346;2023-12-14T11:55:26;11.40;99.90
25410;DHT22;13339;50.840;4.346;2023-12-14T11:57:52;11.40;99.90
25410;DHT22;13339;50.840;4.346;2023-12-14T12:00:23;11.50;99.90
25410;DHT22;13339;50.840;4.346;2023-12-14T12:02:49;11.60;99.90
25410;DHT22;13339;50.840;4.346;2023-12-14T12:05:15;11.50;99.90
25410;DHT22;13339;50.840;4.346;2023-12-14T12:07:44;11.30;99.90
25410;DHT22;13339;50.840;4.346;2023-12-14T12:10:11;11.30;99.90
25410;DHT22;13339;50.840;4.346;2023-12-14T12:12:36;11.40;99.90
25410;DHT22;13339;50.840;4.346;2023-12-14T12:15:04;11.50;99.90
25410;DHT22;13339;50.840;4.346;2023-12-14T12:17:29;11.60;99.90
25410;DHT22;13339;50.840;4.346;2023-12-14T12:19:59;11.60;99.90
25410;DHT22;13339;50.840;4.346;2023-12-14T12:22:24;11.60;99.90
25410;DHT22;13339;50.840;4.346;2023-12-14T12:24:50;11.50;99.90
25410;DHT22;13339;50.840;4.346;2023-12-14T12:27:16;11.40;99.90
25410;DHT22;13339;50.840;4.346;2023-12-14T12:29:41;11.30;99.90
25410;DHT22;13339;50.840;4.346;2023-12-14T12:32:07;11.30;99.90
25410;DHT22;13339;50.840;4.346;2023-12-14T12:34:32;11.40;99.90
25410;DHT22;13339;50.840;4.346;2023-12-14T12:36:58;11.30;99.90
25410;DHT22;13339;50.840;4.346;2023-12-14T12:39:24;11.30;99.90
25410;DHT22;13339;50.840;4.346;2023-12-14T12:41:50;11.40;99.90
25410;DHT22;13339;50.840;4.346;2023-12-14T12:44:16;11.40;99.90
25410;DHT22;13339;50.840;4.346;2023-12-14T12:46:42;11.40;99.90
25410;DHT22;13339;50.840;4.346;2023-12-14T12:49:07;11.40;99.90
25410;DHT22;13339;50.840;4.346;2023-12-14T12:51:33;11.50;99.90
25410;DHT22;13339;50.840;4.346;2023-12-14T12:54:00;11.60;99.90
25410;DHT22;13339;50.840;4.346;2023-12-14T12:56:27;11.60;99.90
25410;DHT22;13339;50.840;4.346;2023-12-14T12:58:53;11.70;99.90
25410;DHT22;13339;50.840;4.346;2023-12-14T13:01:20;11.60;99.90
25410;DHT22;13339;50.840;4.346;2023-12-14T13:03:54;11.60;99.90
25410;DHT22;13339;50.840;4.346;2023-12-14T13:06:23;11.70;99.90
25410;DHT22;13339;50.840;4.346;2023-12-14T13:08:48;11.60;99.90
25410;DHT22;13339;50.840;4.346;2023-12-14T13:11:14;11.60;99.90
25410;DHT22;13339;50.840;4.346;2023-12-14T13:13:40;11.70;99.90
25410;DHT22;13339;50.840;4.346;2023-12-14T13:16:06;11.70;99.90
25410;DHT22;13339;50.840;4.346;2023-12-14T13:18:32;11.70;99.90
25410;DHT22;13339;50.840;4.346;2023-12-14T13:20:57;11.70;99.90
25410;DHT22;13339;50.840;4.346;2023-12-14T13:23:23;11.60;99.90
25410;DHT22;13339;50.840;4.346;2023-12-14T13:25:49;11.60;99.90
25410;DHT22;13339;50.840;4.346;2023-12-14T13:28:14;11.60;99.90
25410;DHT22;13339;50.840;4.346;2023-12-14T13:30:41;11.60;99.90
25410;DHT22;13339;50.840;4.346;2023-12-14T13:33:07;11.60;99.90
25410;DHT22;13339;50.840;4.346;2023-12-14T13:35:34;11.80;99.90
25410;DHT22;13339;50.840;4.346;2023-12-14T13:38:00;11.80;99.90
25410;DHT22;13339;50.840;4.346;2023-12-14T13:40:26;11.70;99.90
25410;DHT22;13339;50.840;4.346;2023-12-14T13:42:51;11.70;99.90
25410;DHT22;13339;50.840;4.346;2023-12-14T13:45:18;11.70;99.90
25410;DHT22;13339;50.840;4.346;2023-12-14T13:47:44;11.70;99.90
25410;DHT22;13339;50.840;4.346;2023-12-14T13:50:09;11.80;99.90
25410;DHT22;13339;50.840;4.346;2023-12-14T13:52:35;11.90;99.90
25410;DHT22;13339;50.840;4.346;2023-12-14T13:55:01;11.80;99.90
25410;DHT22;13339;50.840;4.346;2023-12-14T13:57:26;11.90;99.90
25410;DHT22;13339;50.840;4.346;2023-12-14T13:59:52;11.90;99.90
25410;DHT22;13339;50.840;4.346;2023-12-14T14:02:18;11.90;99.90
25410;DHT22;13339;50.840;4.346;2023-12-14T14:04:44;11.90;99.90
25410;DHT22;13339;50.840;4.346;2023-12-14T14:07:10;12.00;99.90
25410;DHT22;13339;50.840;4.346;2023-12-14T14:09:36;12.00;99.90
25410;DHT22;13339;50.840;4.346;2023-12-14T14:12:01;12.10;99.90
25410;DHT22;13339;50.840;4.346;2023-12-14T14:14:27;12.10;99.90
25410;DHT22;13339;50.840;4.346;2023-12-14T14:16:53;12.10;99.90
25410;DHT22;13339;50.840;4.346;2023-12-14T14:19:18;12.00;99.90
25410;DHT22;13339;50.840;4.346;2023-12-14T14:21:44;12.00;99.90
25410;DHT22;13339;50.840;4.346;2023-12-14T14:24:09;11.90;99.90
25410;DHT22;13339;50.840;4.346;2023-12-14T14:26:35;12.00;99.90
25410;DHT22;13339;50.840;4.346;2023-12-14T14:29:01;12.00;99.90
25410;DHT22;13339;50.840;4.346;2023-12-14T14:31:30;12.00;99.90
25410;DHT22;13339;50.840;4.346;2023-12-14T14:33:58;12.00;99.90
25410;DHT22;13339;50.840;4.346;2023-12-14T14:36:25;12.00;99.90
25410;DHT22;13339;50.840;4.346;2023-12-14T14:38:51;12.00;99.90
25410;DHT22;13339;50.840;4.346;2023-12-14T14:41:19;12.00;99.90
25410;DHT22;13339;50.840;4.346;2023-12-14T14:43:45;11.90;99.90
25410;DHT22;13339;50.840;4.346;2023-12-14T14:46:10;11.80;99.90
25410;DHT22;13339;50.840;4.346;2023-12-14T14:48:37;11.80;99.90
25410;DHT22;13339;50.840;4.346;2023-12-14T14:51:05;11.80;99.90
25410;DHT22;13339;50.840;4.346;2023-12-14T14:53:31;11.90;99.90
25410;DHT22;13339;50.840;4.346;2023-12-14T14:55:57;11.80;99.90
25410;DHT22;13339;50.840;4.346;2023-12-14T14:58:23;11.70;99.90
25410;DHT22;13339;50.840;4.346;2023-12-14T15:00:48;11.70;99.90
25410;DHT22;13339;50.840;4.346;2023-12-14T15:03:14;11.70;99.90
25410;DHT22;13339;50.840;4.346;2023-12-14T15:05:40;11.80;99.90
25410;DHT22;13339;50.840;4.346;2023-12-14T15:08:06;11.80;99.90
25410;DHT22;13339;50.840;4.346;2023-12-14T15:10:33;11.70;99.90
25410;DHT22;13339;50.840;4.346;2023-12-14T15:12:59;11.70;99.90
25410;DHT22;13339;50.840;4.346;2023-12-14T15:15:24;11.70;99.90
25410;DHT22;13339;50.840;4.346;2023-12-14T15:17:50;11.70;99.90
25410;DHT22;13339;50.840;4.346;2023-12-14T15:20:15;11.70;99.90
25410;DHT22;13339;50.840;4.346;2023-12-14T15:22:41;11.70;99.90
25410;DHT22;13339;50.840;4.346;2023-12-14T15:25:07;11.70;99.90
25410;DHT22;13339;50.840;4.346;2023-12-14T15:27:33;11.60;99.90
25410;DHT22;13339;50.840;4.346;2023-12-14T15:29:59;11.50;99.90
25410;DHT22;13339;50.840;4.346;2023-12-14T15:32:25;11.50;99.90
25410;DHT22;13339;50.840;4.346;2023-12-14T15:34:51;11.50;99.90
25410;DHT22;13339;50.840;4.346;2023-12-14T15:37:16;11.50;99.90